Terminal Aerodrome Forecast
Issued by NWS Portland, OR

Home | Current Version | Previous Version | Text Only | Print | Product List | Glossary On
Versions: 1 2 3 4 5 6 7 8 9 10 11 12 13 14 15 16 17 18 19 20 21 22 23 24 25 26 27 28 29 30 31 32
000
FTUS46 KPQR 252058 AAA
TAFTTD
TAF AMD
KTTD 252058Z 2521/2618 26007KT P6SM -SHRA SCT035 BKN050 BKN070
     FM252300 21007KT P6SM VCSH SCT035 BKN060
     FM260200 VRB03KT P6SM SCT060 BKN200
     FM260800 09010KT P6SM SCT060 BKN100=

USA.gov is the U.S. government's official web portal to all federal, state and local government web resources and services.